Main page
METAR-TAF:

METAR-TAF

Airports :

Isles of Scilly, England

St Mary's Airport

latitude: 49-55N, longitude: 006-18W, elevation: 31 m

Current weather observation

The report was made 13 hours and 54 minutes ago, at 17:20 UTC
Wind 20 kt from the West
Temperature 17°C
Humidity 72%
Pressure 1017 hPa
Visibility 10 km or more
Scattered clouds at a height of 2200 ft

METAR: EGHE 181720Z 27020KT 9999 SCT022 17/12 Q1017

Time: 08:14 (07:14 UTC)

Forecast

The report was made 17 hours and 16 minutes ago, at 13:58 UTC
Forecast valid from 18 at 15 UTC to 18 at 18 UTC
Wind 25 kt from the West with gusts up to 35 kt
Visibility 10 km or more
Scattered clouds at a height of 3500 ft
Temporary
from 18 at 15 UTC to 18 at 18 UTC
Visibility: 7000 m
rain showers

TAF: EGHE 181358Z 1815/1818 27025G35KT 9999 SCT035 TEMPO 1815/1818 7000 SHRA

Weather observations and forecasts of more than 4000 airports (METAR and TAF reports).

The available stations are represented by yellow and red dots on the map.

Hover mouse over dot to see the name of the station.

Then click to see weather observations and forecasts.

To change the map : click on the green buttons with a black cross to zoom in, on the green button with a dash to zoom out, or on the green arrows for adjacent maps.


METAR-TAF: